Latest Weather Observations for Tindal

IDD60801

Issued at 1:35 am CST Thursday 23 November 2017 (issued every 30 minutes, with the page automatically refreshed every 10 minutes)

About weather observations | Map of weather stations | Latest weather observations for NT | Other Formats
Station Details ID: 014932 Name: TINDAL RAAF Lat: -14.52 Lon: 132.38 Height: 133.6 m
Data from the previous 72 hours. | See also: Recent months at Tindal
Date/Time
CST
Temp
°C
App
Temp
°C
Dew
Point
°C
Rel
Hum
%
Delta-T
°C
Wind Press
QNH
hPa
Press
MSL
hPa
Rain since
9am
mm
Dir  Spd
km/h
Gust
km/h
Spd
kts
Gust
kts
23/01:00am 23.2 25.5 19.8 81 2.2 W 7 9 4 5 1006.8 1005.8 0.0
23/12:30am 23.5 24.4 19.2 77 2.8 NNW 13 17 7 9 1006.9 1005.9 0.0
23/12:00am 23.7 25.4 19.4 77 2.8 N 9 13 5 7 1007.1 1006.1 0.0
 
Date/Time
CST
Temp
°C
App
Temp
°C
Dew
Point
°C
Rel
Hum
%
Delta-T
°C
Wind Press
QNH
hPa
Press
MSL
hPa
Rain since
9am
mm
Dir  Spd
km/h
Gust
km/h
Spd
kts
Gust
kts
22/11:30pm 23.7 24.4 19.6 78 2.6 N 15 20 8 11 1007.7 1006.7 0.0
22/11:00pm 24.0 25.3 20.1 79 2.5 N 13 20 7 11 1007.6 1006.6 0.0
22/10:30pm 24.9 26.2 20.2 75 3.1 N 13 22 7 12 1007.9 1006.9 0.0
22/10:00pm 25.2 26.9 20.9 77 2.8 N 13 17 7 9 1007.5 1006.5 0.0
22/09:30pm 25.1 23.3 19.5 71 3.6 NNE 28 41 15 22 1007.0 1006.0 0.0
22/09:20pm 25.5 23.8 19.9 71 3.6 NNE 28 46 15 25 1006.7 1005.7 0.0
22/09:00pm 25.3 24.1 20.8 76 3.0 NE 28 41 15 22 1006.6 1005.6 0.0
22/08:35pm 27.8 27.3 22.1 71 3.9 E 28 48 15 26 1006.5 1005.5 0.0
22/08:30pm 29.6 30.5 21.5 61 5.5 E 19 28 10 15 1006.4 1005.4 0.0
22/08:00pm 30.4 31.3 22.0 60 5.7 NW 20 26 11 14 1005.9 1004.9 0.0
22/07:30pm 30.4 34.2 22.8 64 5.2 NNW 7 11 4 6 1005.1 1004.0 0.0
22/07:00pm 31.0 34.0 22.0 58 6.1 N 9 15 5 8 1004.2 1003.1 0.0
22/06:30pm 31.4 33.9 21.8 56 6.5 N 11 17 6 9 1003.9 1002.8 0.0
22/06:00pm 31.9 34.2 22.0 55 6.8 N 13 19 7 10 1003.7 1002.6 0.0
22/05:30pm 32.2 32.4 21.4 53 7.3 NNE 22 30 12 16 1003.2 1002.1 0.0
22/05:15pm 33.2 34.6 21.0 48 8.2 NNW 15 35 8 19 1003.3 1002.2 0.0
22/05:00pm 35.5 37.8 20.6 41 10.1 W 9 15 5 8 1003.1 1002.0 0.0
22/04:30pm 35.0 37.1 20.2 42 10.0 WNW 9 20 5 11 1002.9 1001.8 0.0
22/04:00pm 35.0 37.0 21.6 45 9.2 NW 13 24 7 13 1002.9 1001.8 0.0
22/03:30pm 34.6 36.7 20.9 44 9.3 WNW 11 24 6 13 1003.0 1001.9 0.0
22/03:00pm 34.2 37.2 21.9 48 8.5 W 9 17 5 9 1003.2 1002.1 0.0
22/02:30pm 34.1 36.5 21.5 47 8.6 WNW 11 20 6 11 1003.9 1002.8 0.0
22/02:00pm 33.7 36.8 22.1 50 8.0 WNW 9 17 5 9 1004.5 1003.4 0.0
22/01:30pm 33.8 36.2 21.6 49 8.3 W 11 17 6 9 1005.0 1003.9 0.0
22/01:00pm 33.0 36.0 22.7 54 7.1 WNW 11 19 6 10 1005.7 1004.7 0.0
22/12:30pm 32.8 35.8 23.4 57 6.6 WNW 13 19 7 10 1006.4 1005.4 0.0
22/12:00pm 32.2 35.2 22.6 57 6.6 WNW 11 17 6 9 1007.2 1006.2 0.0
22/11:30am 31.6 35.9 23.7 63 5.5 WSW 7 15 4 8 1007.7 1006.7 0.0
22/11:00am 30.5 34.5 23.7 67 4.7 WNW 9 15 5 8 1007.9 1006.9 0.0
22/10:30am 30.1 34.2 23.3 67 4.7 NW 7 15 4 8 1008.3 1007.2 0.0
22/10:00am 29.4 33.7 23.6 71 4.0 WSW 7 13 4 7 1008.5 1007.4 0.0
22/09:30am 28.7 32.5 23.4 73 3.7 SW 9 15 5 8 1008.7 1007.6 0.0
22/09:00am 28.1 32.1 23.7 77 3.0 SSW 9 13 5 7 1008.6 1007.5 11.4
22/08:30am 26.8 32.1 23.1 80 2.5 CALM 0 6 0 3 1008.2 1007.1 11.4
22/08:00am 26.1 29.9 23.4 85 1.9 S 9 13 5 7 1008.2 1007.1 11.4
22/07:30am 25.6 29.9 23.7 89 1.3 SSW 7 11 4 6 1007.8 1006.8 11.4
22/07:00am 25.2 29.4 23.4 90 1.2 ESE 7 15 4 8 1007.4 1006.4 11.4
22/06:30am 25.1 30.4 23.0 88 1.4 CALM 0 0 0 0 1006.5 1005.5 11.4
22/06:00am 24.9 28.9 22.8 88 1.4 ENE 6 7 3 4 1006.1 1005.1 11.2
22/05:30am 24.9 29.4 23.0 89 1.3 NNE 4 7 2 4 1005.8 1004.8 11.2
22/05:00am 24.8 28.3 22.9 89 1.3 N 9 13 5 7 1005.4 1004.4 11.2
22/04:30am 24.6 27.4 23.0 91 1.1 N 13 17 7 9 1004.9 1003.8 11.2
22/04:00am 24.5 28.1 23.1 92 1.0 N 9 15 5 8 1005.5 1004.5 11.2
22/03:30am 24.4 28.0 23.0 92 1.0 N 9 11 5 6 1005.5 1004.5 11.2
22/03:00am 24.4 27.7 23.2 93 0.8 N 11 15 6 8 1005.5 1004.5 11.2
22/02:30am 24.6 28.7 23.2 92 1.0 N 7 11 4 6 1005.6 1004.6 11.2
22/02:00am 24.7 28.7 23.1 91 1.1 N 7 9 4 5 1006.2 1005.2 11.2
22/01:30am 24.7 29.6 23.1 91 1.1 WNW 2 6 1 3 1006.9 1005.9 11.2
22/01:00am 24.5 29.8 23.1 92 1.0 CALM 0 0 0 0 1007.6 1006.6 11.2
22/12:34am 24.4 28.3 23.0 92 0.9 SSW 7 9 4 5 1008.1 1007.0 11.2
22/12:30am 24.4 28.3 23.0 92 1.0 SSW 7 11 4 6 1008.2 1007.1 11.2
22/12:14am 24.4 28.5 23.2 93 0.8 SSW 7 13 4 7 1008.3 1007.2 11.2
22/12:00am 24.4 28.1 23.2 93 0.8 SSE 9 11 5 6 1008.5 1007.4 11.2
 
Date/Time
CST
Temp
°C
App
Temp
°C
Dew
Point
°C
Rel
Hum
%
Delta-T
°C
Wind Press
QNH
hPa
Press
MSL
hPa
Rain since
9am
mm
Dir  Spd
km/h
Gust
km/h
Spd
kts
Gust
kts
21/11:30pm 24.2 27.4 23.0 93 0.8 SE 11 13 6 7 1008.7 1007.6 11.2
21/11:00pm 24.0 27.1 22.8 93 0.8 SSE 11 15 6 8 1008.4 1007.3 11.2
21/10:30pm 24.0 27.8 22.8 93 0.8 SSE 7 9 4 5 1008.2 1007.1 11.2
21/10:00pm 24.1 28.1 22.7 92 0.9 SSE 6 7 3 4 1007.7 1006.7 11.2
21/09:30pm 24.1 27.5 22.7 92 0.9 SW 9 11 5 6 1007.9 1006.9 11.2
21/09:00pm 24.3 29.0 22.7 91 1.1 S 2 9 1 5 1007.9 1006.9 11.2
21/08:30pm 24.6 28.7 23.0 91 1.1 S 6 7 3 4 1008.1 1007.0 11.2
21/08:00pm 24.7 28.9 23.1 91 1.1 SW 6 9 3 5 1007.8 1006.8 11.2
21/07:30pm 24.8 28.6 22.7 88 1.4 ESE 7 9 4 5 1007.1 1006.1 11.2
21/07:00pm 24.7 28.9 22.4 87 1.5 E 4 7 2 4 1007.1 1006.1 11.2
21/06:30pm 24.4 28.3 22.5 89 1.3 N 6 9 3 5 1006.4 1005.4 11.2
21/06:00pm 24.2 26.0 22.5 90 1.1 NNE 17 20 9 11 1006.5 1005.5 11.0
21/05:46pm 24.0 26.8 22.3 90 1.1 NE 11 15 6 8 1006.3 1005.3 10.8
21/05:30pm 24.0 28.2 21.7 87 1.5 NE 2 7 1 4 1006.3 1005.3 10.0
21/05:27pm 24.0 28.1 21.5 86 1.7 ENE 2 6 1 3 1006.3 1005.3 9.8
21/05:00pm 24.1 26.6 21.8 87 1.5 S 11 15 6 8 1006.2 1005.2 8.8
21/04:30pm 23.9 25.0 21.2 85 1.8 SW 17 22 9 12 1006.5 1005.5 8.6
21/04:02pm 23.4 24.0 21.1 87 1.5 SSW 19 26 10 14 1006.4 1005.4 8.4
21/04:00pm 23.3 23.6 20.8 86 1.6 SSW 20 28 11 15 1006.5 1005.5 8.4
21/03:30pm 24.6 23.5 21.1 81 2.3 S 28 43 15 23 1007.0 1006.0 5.2
21/03:12pm 25.5 22.1 20.7 75 3.2 SSE 39 57 21 31 1006.8 1005.8 4.2
21/03:09pm 25.1 23.6 22.8 87 1.6 SE 35 52 19 28 1007.1 1006.1 3.8
21/03:00pm 27.9 28.0 22.6 73 3.6 SE 26 54 14 29 1006.7 1005.7 0.2
21/02:59pm 28.7 30.0 24.0 76 3.3 SE 24 54 13 29 1006.6 1005.6 0.0
21/02:56pm 30.7 33.3 23.9 67 4.7 SE 17 39 9 21 1006.5 1005.5 0.0
21/02:30pm 33.6 35.4 20.4 46 8.9 WSW 11 15 6 8 1005.9 1004.9 0.0
21/02:00pm 34.5 36.2 20.1 43 9.6 WSW 11 15 6 8 1006.2 1005.2 0.0
21/01:30pm 34.3 36.3 20.7 45 9.2 W 11 17 6 9 1006.5 1005.5 0.0
21/01:00pm 34.7 36.5 19.5 40 10.1 SW 9 15 5 8 1007.0 1006.0 0.0
21/12:30pm 34.3 37.9 22.0 48 8.5 NNE 6 13 3 7 1007.6 1006.6 0.0
21/12:00pm 33.5 36.6 22.9 53 7.4 WSW 11 20 6 11 1008.6 1007.5 0.0
21/11:30am 32.9 35.8 22.4 54 7.2 NW 11 20 6 11 1009.1 1008.0 0.0
21/11:00am 32.6 35.6 23.3 58 6.5 SW 13 20 7 11 1009.7 1008.6 0.0
21/10:30am 31.9 34.9 23.4 60 5.9 W 13 20 7 11 1010.1 1009.0 0.0
21/10:00am 31.7 34.8 23.5 62 5.7 NW 13 22 7 12 1010.3 1009.2 0.0
21/09:30am 30.5 33.9 23.4 66 4.9 WNW 11 17 6 9 1010.4 1009.3 0.0
21/09:00am 30.3 32.7 23.7 68 4.6 WNW 17 26 9 14 1010.4 1009.3 0.0
21/08:30am 29.4 32.6 23.1 69 4.3 NW 11 15 6 8 1010.2 1009.1 0.0
21/08:01am 28.9 32.5 23.1 71 4.0 NW 9 13 5 7 1010.1 1009.0 0.0
21/08:00am 28.8 32.3 22.8 70 4.1 NW 9 13 5 7 1010.1 1009.0 0.0
21/07:30am 28.1 32.7 23.2 74 3.4 WNW 4 11 2 6 1009.5 1008.4 0.0
21/07:00am 27.6 31.5 23.0 76 3.1 NNW 7 9 4 5 1008.9 1007.8 0.0
21/06:34am 27.0 30.7 22.6 77 3.0 N 7 9 4 5 1008.4 1007.3 0.0
21/06:33am 27.0 30.8 22.8 78 2.9 N 7 9 4 5 1008.4 1007.3 0.0
21/06:30am 26.9 30.7 22.7 78 2.9 N 7 9 4 5 1008.3 1007.2 0.0
21/06:00am 26.7 31.3 22.5 78 2.9 N 2 6 1 3 1008.1 1007.0 0.0
21/05:30am 27.1 30.4 22.5 76 3.1 NNW 9 11 5 6 1007.6 1006.6 0.0
21/05:00am 27.2 30.4 22.4 75 3.3 NNW 9 15 5 8 1007.3 1006.3 0.0
21/04:38am 27.5 30.6 22.2 73 3.6 NNW 9 13 5 7 1007.3 1006.3 0.0
21/04:30am 27.6 30.8 22.3 73 3.6 NNW 9 13 5 7 1007.1 1006.1 0.0
21/04:00am 27.7 30.2 22.4 73 3.6 NNW 13 19 7 10 1007.0 1006.0 0.0
21/03:30am 27.8 30.3 22.5 73 3.6 NNW 13 19 7 10 1007.1 1006.1 0.0
21/03:00am 28.2 29.8 22.2 70 4.1 NNW 17 24 9 13 1007.3 1006.3 0.0
21/02:44am 28.4 29.8 21.9 68 4.4 NNW 17 22 9 12 1007.5 1006.5 0.0
21/02:30am 28.5 30.0 22.0 68 4.4 NNW 17 26 9 14 1007.5 1006.5 0.0
21/02:00am 28.6 30.3 21.6 66 4.7 NNW 15 20 8 11 1007.8 1006.8 0.0
21/01:30am 28.2 30.4 21.2 65 4.7 NNW 11 20 6 11 1007.8 1006.8 0.0
21/01:00am 27.8 32.3 22.3 72 3.7 WNW 2 9 1 5 1008.2 1007.1 0.0
21/12:30am 27.8 31.7 21.8 70 4.0 W 4 9 2 5 1008.4 1007.3 0.0
21/12:00am 28.3 31.1 21.6 67 4.5 NW 9 11 5 6 1008.5 1007.4 0.0
 
Date/Time
CST
Temp
°C
App
Temp
°C
Dew
Point
°C
Rel
Hum
%
Delta-T
°C
Wind Press
QNH
hPa
Press
MSL
hPa
Rain since
9am
mm
Dir  Spd
km/h
Gust
km/h
Spd
kts
Gust
kts
20/11:30pm 28.2 31.2 22.0 69 4.2 WNW 9 13 5 7 1008.5 1007.4 0.0
20/11:00pm 28.8 32.7 21.8 66 4.7 WNW 4 7 2 4 1008.2 1007.1 0.0
20/10:52pm 29.3 32.6 21.5 63 5.3 NNW 6 9 3 5 1008.3 1007.2 0.0
20/10:30pm 29.4 33.3 21.9 64 5.1 NNW 4 9 2 5 1008.3 1007.2 0.0
20/10:00pm 29.3 32.8 21.8 64 5.1 WNW 6 7 3 4 1008.4 1007.3 0.0
20/09:30pm 29.3 32.3 21.3 62 5.4 NW 7 9 4 5 1008.3 1007.2 0.0
20/09:00pm 29.7 32.4 21.4 61 5.6 NNW 9 11 5 6 1008.1 1007.0 0.0
20/08:30pm 29.5 32.2 21.4 61 5.5 NW 9 11 5 6 1007.4 1006.4 0.0
20/08:00pm 30.2 33.1 21.0 58 6.2 NNW 7 11 4 6 1006.7 1005.7 0.0
20/07:30pm 30.2 32.9 20.7 56 6.4 WSW 7 9 4 5 1006.3 1005.3 0.0
20/07:00pm 30.4 32.3 20.6 55 6.5 SW 11 15 6 8 1006.1 1005.1 0.0
20/06:30pm 31.3 32.3 20.3 52 7.3 SW 15 24 8 13 1006.0 1005.0 0.0
20/06:14pm 33.1 33.3 20.6 47 8.4 WNW 20 39 11 21 1005.6 1004.6 0.0
20/06:00pm 34.8 37.1 20.7 43 9.5 W 9 15 5 8 1005.5 1004.5 0.0
20/05:30pm 35.5 37.2 19.4 38 10.7 WSW 9 11 5 6 1005.2 1004.1 0.0
20/05:00pm 36.5 38.4 19.0 35 11.6 W 7 11 4 6 1005.1 1004.0 0.0
20/04:30pm 37.1 38.8 18.1 32 12.5 S 6 11 3 6 1005.3 1004.3 0.0
20/04:00pm 36.8 37.3 17.4 32 12.6 ENE 11 17 6 9 1005.4 1004.4 0.0
20/03:30pm 37.2 38.4 18.2 32 12.5 NW 9 13 5 7 1005.8 1004.8 0.0
20/03:00pm 36.4 38.5 20.2 38 10.9 N 9 15 5 8 1006.2 1005.2 0.0
20/02:30pm 36.6 37.0 19.1 35 11.7 W 15 22 8 12 1006.6 1005.6 0.0
20/02:00pm 36.4 38.3 18.5 35 11.8 WSW 6 13 3 7 1007.0 1006.0 0.0
20/01:30pm 35.8 36.1 17.9 34 11.7 NNW 13 19 7 10 1007.4 1006.4 0.0
20/01:00pm 35.6 36.6 18.7 37 11.1 NNW 11 15 6 8 1008.1 1007.0 0.0
20/12:30pm 34.7 37.0 20.6 43 9.5 NW 9 17 5 9 1008.5 1007.4 0.0
20/12:00pm 34.5 37.5 21.9 48 8.6 NW 9 15 5 8 1009.1 1008.0 0.0
20/11:30am 33.7 37.0 21.5 49 8.3 WNW 6 15 3 8 1009.6 1008.5 0.0
20/11:00am 33.0 36.1 21.5 50 7.8 S 7 20 4 11 1009.9 1008.8 0.0
20/10:30am 32.9 36.3 22.7 55 7.0 W 9 15 5 8 1010.2 1009.1 0.0
20/10:00am 31.9 34.3 22.3 56 6.6 WSW 13 19 7 10 1010.5 1009.4 0.0
20/09:30am 30.5 33.2 22.9 64 5.2 WSW 13 22 7 12 1010.7 1009.6 0.0
20/09:00am 29.5 32.4 23.2 69 4.3 WSW 13 17 7 9 1010.8 1009.7 0.0
20/08:30am 28.5 32.4 23.0 72 3.8 W 7 11 4 6 1011.1 1010.0 0.0
20/08:00am 27.4 30.1 22.1 73 3.6 WNW 11 13 6 7 1011.0 1009.9 0.0
20/07:30am 26.3 30.2 22.6 80 2.5 WNW 6 9 3 5 1010.8 1009.7 0.0
20/07:00am 25.4 29.1 22.3 83 2.1 NNW 6 7 3 4 1010.7 1009.6 0.0
20/06:30am 25.0 29.6 22.5 86 1.7 NNW 2 6 1 3 1010.6 1009.5 0.0
20/06:00am 24.7 29.6 22.4 87 1.6 CALM 0 0 0 0 1010.6 1009.5 0.0
20/05:30am 24.7 28.7 22.8 89 1.3 W 6 7 3 4 1010.2 1009.1 0.0
20/05:00am 24.9 28.6 22.6 87 1.6 W 7 9 4 5 1010.0 1008.9 0.0
20/04:30am 24.9 28.8 23.0 89 1.3 W 7 11 4 6 1009.9 1008.8 0.0
20/04:00am 24.9 30.0 22.6 87 1.6 CALM 0 0 0 0 1009.7 1008.6 0.0
20/03:30am 24.7 29.6 22.4 87 1.6 CALM 0 0 0 0 1009.9 1008.8 0.0
20/03:00am 25.1 28.8 22.6 86 1.7 SW 7 9 4 5 1010.0 1008.9 0.0
20/02:30am 25.1 29.3 22.4 85 1.8 SSW 4 9 2 5 1010.2 1009.1 0.0
20/02:00am 25.5 29.8 22.0 81 2.3 NE 2 7 1 4 1010.2 1009.1 0.0

Other Formats:

Comma delimited format used in spreadsheet applications
http://www.bom.gov.au/fwo/IDD60801/IDD60801.94131.axf

JavaScript Object Notation format (JSON) in row-major order
http://www.bom.gov.au/fwo/IDD60801/IDD60801.94131.json